createdAt,value
2019-06-27T00:02:08.865Z,12.80
2019-06-27T00:04:38.377Z,11.50
2019-06-27T00:07:07.884Z,10.97
2019-06-27T00:09:37.285Z,11.57
2019-06-27T00:12:06.750Z,11.30
2019-06-27T00:14:36.368Z,12.63
2019-06-27T00:17:05.970Z,12.87
2019-06-27T00:19:35.439Z,12.93
2019-06-27T00:22:04.980Z,12.70
2019-06-27T00:24:34.565Z,12.43
2019-06-27T00:27:04.025Z,12.27
2019-06-27T00:29:33.536Z,10.67
2019-06-27T00:32:03.026Z,12.40
2019-06-27T00:34:32.583Z,12.03
2019-06-27T00:37:02.011Z,11.40
2019-06-27T00:39:31.532Z,10.67
2019-06-27T00:42:01.018Z,10.87
2019-06-27T00:44:30.512Z,11.63
2019-06-27T00:46:59.975Z,11.47
2019-06-27T00:49:29.492Z,11.20
2019-06-27T00:51:58.977Z,10.93
2019-06-27T00:54:28.389Z,13.60
2019-06-27T00:57:13.080Z,11.63
2019-06-27T00:59:29.083Z,12.10
2019-06-27T01:01:58.509Z,11.43
2019-06-27T01:04:28.130Z,11.87
2019-06-27T01:06:57.629Z,24.50
2019-06-27T01:09:27.030Z,17.57
2019-06-27T01:11:56.494Z,18.43
2019-06-27T01:14:26.017Z,14.20
2019-06-27T01:16:55.513Z,14.03
2019-06-27T01:19:24.997Z,16.33
2019-06-27T01:21:54.418Z,21.63
2019-06-27T01:24:23.979Z,20.63
2019-06-27T01:26:53.473Z,16.93
2019-06-27T01:29:22.884Z,14.13
2019-06-27T01:31:52.327Z,17.87
2019-06-27T01:34:21.853Z,17.03
2019-06-27T01:36:51.383Z,11.27
2019-06-27T01:39:20.887Z,10.33
2019-06-27T01:41:50.380Z,10.37
2019-06-27T01:44:37.288Z,9.90
2019-06-27T01:47:07.430Z,11.57
2019-06-27T01:49:36.946Z,12.00
2019-06-27T01:52:06.572Z,11.03
2019-06-27T01:54:35.964Z,13.77
2019-06-27T01:57:05.723Z,11.87
2019-06-27T01:59:35.280Z,13.00
2019-06-27T02:02:05.159Z,14.13
2019-06-27T02:04:34.719Z,14.40
2019-06-27T02:07:04.265Z,17.73
2019-06-27T02:09:33.784Z,14.93
2019-06-27T02:12:03.309Z,13.47
2019-06-27T02:14:32.710Z,11.53
2019-06-27T02:17:02.141Z,11.30
2019-06-27T02:19:31.646Z,11.30
2019-06-27T02:22:01.096Z,11.93
2019-06-27T02:24:30.640Z,15.20
2019-06-27T02:27:00.137Z,11.47
2019-06-27T02:29:29.557Z,11.70
2019-06-27T02:31:58.996Z,13.10
2019-06-27T02:34:28.546Z,12.37
2019-06-27T02:36:58.070Z,11.97
2019-06-27T02:39:27.485Z,13.40
2019-06-27T02:41:56.862Z,15.00
2019-06-27T02:44:26.407Z,14.43
2019-06-27T02:46:55.894Z,13.30
2019-06-27T02:49:25.434Z,11.40
2019-06-27T02:51:54.930Z,10.73
2019-06-27T02:54:24.449Z,10.83
2019-06-27T02:56:53.941Z,9.63
2019-06-27T02:59:23.341Z,9.13
2019-06-27T03:01:52.791Z,11.07
2019-06-27T03:04:22.294Z,10.23
2019-06-27T03:06:51.908Z,10.73
2019-06-27T03:09:21.311Z,10.90
2019-06-27T03:11:50.736Z,19.10
2019-06-27T03:14:20.279Z,15.37
2019-06-27T03:16:49.781Z,13.63
2019-06-27T03:19:19.204Z,11.47
2019-06-27T03:21:48.645Z,11.07
2019-06-27T03:24:18.157Z,11.90
2019-06-27T03:26:47.678Z,12.03
2019-06-27T03:29:20.174Z,11.17
2019-06-27T03:31:48.279Z,11.53
2019-06-27T03:34:18.102Z,11.40
2019-06-27T03:36:47.584Z,11.30
2019-06-27T03:39:17.055Z,12.23
2019-06-27T03:41:46.627Z,12.53
2019-06-27T03:44:16.044Z,11.53
2019-06-27T03:46:45.477Z,13.17
2019-06-27T03:49:15.000Z,10.87
2019-06-27T03:51:44.525Z,10.47
2019-06-27T03:54:13.925Z,10.70
2019-06-27T03:56:43.347Z,10.97
2019-06-27T03:59:13.969Z,11.60
2019-06-27T04:01:43.644Z,10.80
2019-06-27T04:04:13.091Z,10.80
2019-06-27T04:06:42.512Z,11.90
2019-06-27T04:09:12.026Z,15.23
2019-06-27T04:11:41.656Z,12.17
2019-06-27T04:14:11.058Z,11.63
2019-06-27T04:16:41.975Z,13.00
2019-06-27T04:19:12.752Z,11.77
2019-06-27T04:21:43.520Z,11.63
2019-06-27T04:24:14.766Z,10.87
2019-06-27T04:26:45.457Z,10.73
2019-06-27T04:29:33.052Z,10.03
2019-06-27T04:31:48.800Z,9.70
2019-06-27T04:34:20.457Z,11.03
2019-06-27T04:36:51.632Z,10.83
2019-06-27T04:39:22.434Z,20.30
2019-06-27T04:41:53.357Z,19.40
2019-06-27T04:44:24.072Z,20.90
2019-06-27T04:46:54.760Z,28.87
2019-06-27T04:49:25.624Z,26.33
2019-06-27T04:51:56.272Z,17.17
2019-06-27T04:54:26.912Z,14.07
2019-06-27T04:56:57.796Z,12.67
2019-06-27T04:59:28.426Z,13.17
2019-06-27T05:20:38.718Z,9.37
2019-06-27T05:23:08.132Z,9.97
2019-06-27T05:25:37.761Z,9.50
2019-06-27T05:28:07.473Z,8.50
2019-06-27T05:30:37.195Z,9.70
2019-06-27T05:33:06.665Z,13.57
2019-06-27T05:35:36.492Z,9.47
2019-06-27T05:38:05.914Z,9.73
2019-06-27T05:40:35.338Z,10.37
2019-06-27T05:43:05.021Z,9.90
2019-06-27T05:45:34.847Z,9.73
2019-06-27T05:48:04.401Z,9.73
2019-06-27T05:50:34.157Z,10.00
2019-06-27T05:53:03.917Z,10.07
2019-06-27T05:55:33.767Z,9.73
2019-06-27T05:58:03.405Z,9.37
2019-06-27T06:00:33.063Z,9.57
2019-06-27T06:03:02.603Z,8.27
2019-06-27T06:05:32.244Z,8.27
2019-06-27T06:08:01.960Z,8.77
2019-06-27T06:10:31.634Z,7.87
2019-06-27T06:13:01.314Z,8.77
2019-06-27T06:15:30.917Z,7.50
2019-06-27T06:18:00.540Z,7.97
2019-06-27T06:20:30.222Z,8.67
2019-06-27T06:23:00.070Z,8.90
2019-06-27T06:25:29.804Z,7.20
2019-06-27T06:27:59.477Z,8.40
2019-06-27T06:30:43.228Z,7.87
2019-06-27T06:33:00.543Z,7.30
2019-06-27T06:35:30.035Z,7.67
2019-06-27T06:37:59.566Z,7.77
2019-06-27T06:40:29.393Z,7.27
2019-06-27T06:43:00.613Z,8.23
2019-06-27T06:45:30.482Z,7.27
2019-06-27T06:47:59.927Z,7.43
2019-06-27T06:50:29.716Z,7.33
2019-06-27T06:52:59.469Z,7.00
2019-06-27T06:55:29.222Z,7.10
2019-06-27T06:57:58.808Z,8.13
2019-06-27T07:00:28.691Z,7.63
2019-06-27T07:02:58.511Z,7.43
2019-06-27T07:05:28.039Z,6.93
2019-06-27T07:07:57.555Z,7.33
2019-06-27T07:10:27.287Z,7.40
2019-06-27T07:12:57.128Z,8.37
2019-06-27T07:15:26.672Z,6.80
2019-06-27T07:17:56.455Z,6.83
2019-06-27T07:20:26.128Z,6.73
2019-06-27T07:22:55.602Z,7.13
2019-06-27T07:25:25.164Z,6.87
2019-06-27T07:27:54.857Z,6.90
2019-06-27T07:30:24.633Z,6.97
2019-06-27T07:32:54.445Z,6.77
2019-06-27T07:35:24.311Z,6.57
2019-06-27T07:37:54.116Z,6.67
2019-06-27T07:40:23.871Z,6.40
2019-06-27T07:42:53.590Z,6.83
2019-06-27T07:45:23.014Z,6.53
2019-06-27T07:47:52.808Z,6.47
2019-06-27T07:50:22.550Z,7.03
2019-06-27T07:52:52.053Z,6.80
2019-06-27T07:55:23.504Z,6.37
2019-06-27T07:57:52.949Z,7.20
2019-06-27T08:00:23.643Z,6.10
2019-06-27T08:02:53.327Z,6.70
2019-06-27T08:05:22.907Z,6.47
2019-06-27T08:07:52.328Z,6.60
2019-06-27T08:10:22.091Z,6.63
2019-06-27T08:12:51.938Z,6.30
2019-06-27T08:15:21.991Z,8.70
2019-06-27T08:17:51.675Z,5.90
2019-06-27T08:20:21.568Z,6.17
2019-06-27T08:22:51.280Z,6.57
2019-06-27T08:25:21.117Z,6.23
2019-06-27T08:27:51.001Z,5.67
2019-06-27T08:30:21.730Z,5.33
2019-06-27T08:32:51.443Z,5.70
2019-06-27T08:35:20.963Z,5.13
2019-06-27T08:37:50.555Z,6.47
2019-06-27T08:40:20.109Z,6.10
2019-06-27T08:42:49.808Z,5.60
2019-06-27T08:45:19.582Z,5.83
2019-06-27T08:47:49.394Z,5.53
2019-06-27T08:50:20.599Z,6.33
2019-06-27T08:52:50.394Z,5.40
2019-06-27T08:55:20.052Z,6.20
2019-06-27T08:57:49.766Z,5.70
2019-06-27T09:00:19.903Z,6.10
2019-06-27T09:02:49.619Z,6.90
2019-06-27T09:05:19.216Z,5.20
2019-06-27T09:07:48.805Z,5.50
2019-06-27T09:10:18.722Z,5.87
2019-06-27T09:12:48.594Z,5.53
2019-06-27T09:15:18.332Z,5.13
2019-06-27T09:17:48.143Z,6.80
2019-06-27T09:20:17.843Z,6.87
2019-06-27T09:22:47.242Z,5.50
2019-06-27T09:25:16.919Z,5.13
2019-06-27T09:27:46.786Z,5.23
2019-06-27T09:30:17.024Z,5.43
2019-06-27T09:32:46.591Z,6.23
2019-06-27T09:35:16.545Z,5.10
2019-06-27T09:37:46.336Z,5.80
2019-06-27T09:40:16.160Z,6.83
2019-06-27T09:42:46.097Z,5.37
2019-06-27T09:45:16.053Z,5.27
2019-06-27T09:47:45.905Z,5.20
2019-06-27T09:50:16.207Z,5.50
2019-06-27T09:52:45.612Z,6.63
2019-06-27T09:55:15.264Z,4.93
2019-06-27T09:57:44.651Z,7.10
2019-06-27T10:00:14.821Z,4.47
2019-06-27T10:02:44.523Z,5.00
2019-06-27T10:05:13.920Z,8.20
2019-06-27T10:07:43.412Z,4.12
2019-06-27T10:10:14.039Z,3.98
2019-06-27T10:12:43.570Z,3.83
2019-06-27T10:15:14.176Z,6.22
2019-06-27T10:17:43.582Z,3.98
2019-06-27T10:20:14.660Z,4.05
2019-06-27T10:22:44.328Z,4.10
2019-06-27T10:25:14.172Z,4.22
2019-06-27T10:27:43.885Z,3.50
2019-06-27T10:30:13.933Z,3.83
2019-06-27T10:32:57.720Z,4.00
2019-06-27T10:35:14.903Z,4.15
2019-06-27T10:37:44.541Z,3.47
2019-06-27T10:40:14.247Z,3.40
2019-06-27T10:42:43.880Z,3.37
2019-06-27T10:45:13.700Z,3.50
2019-06-27T10:47:43.423Z,3.75
2019-06-27T10:50:13.293Z,3.85
2019-06-27T10:52:42.699Z,4.03
2019-06-27T10:55:13.605Z,3.85
2019-06-27T10:57:43.317Z,3.45
2019-06-27T11:00:12.912Z,3.30
2019-06-27T11:02:42.675Z,4.17
2019-06-27T11:05:12.218Z,3.90
2019-06-27T11:07:42.300Z,3.95
2019-06-27T11:10:11.845Z,3.70
2019-06-27T11:12:44.868Z,4.60
2019-06-27T11:15:12.975Z,4.97
2019-06-27T11:17:42.366Z,4.37
2019-06-27T11:20:15.269Z,4.08
2019-06-27T11:22:44.370Z,3.75
2019-06-27T11:25:14.522Z,3.98
2019-06-27T11:27:44.364Z,3.83
2019-06-27T11:30:14.684Z,4.90
2019-06-27T11:32:44.327Z,3.83
2019-06-27T11:35:13.961Z,4.30
2019-06-27T11:37:43.614Z,4.22
2019-06-27T11:40:13.247Z,4.30
2019-06-27T11:42:42.679Z,4.40
2019-06-27T11:45:12.619Z,3.83
2019-06-27T11:47:42.395Z,4.33
2019-06-27T11:50:12.267Z,3.90
2019-06-27T11:52:42.007Z,4.30
2019-06-27T11:55:11.503Z,3.87
2019-06-27T11:57:41.199Z,3.92
2019-06-27T12:00:11.361Z,4.95
2019-06-27T12:02:40.762Z,4.92
2019-06-27T12:05:10.341Z,4.37
2019-06-27T12:07:39.938Z,4.42
2019-06-27T12:10:10.624Z,4.10
2019-06-27T12:12:40.068Z,4.10
2019-06-27T12:15:09.798Z,4.55
2019-06-27T12:17:39.839Z,3.98
2019-06-27T12:20:10.373Z,5.47
2019-06-27T12:22:39.920Z,4.78
2019-06-27T12:25:09.982Z,4.22
2019-06-27T12:27:39.802Z,4.97
2019-06-27T12:30:09.797Z,3.92
2019-06-27T12:32:51.194Z,4.30
2019-06-27T12:35:11.042Z,3.92
2019-06-27T12:37:40.456Z,4.75
2019-06-27T12:40:10.195Z,4.30
2019-06-27T12:42:39.900Z,4.40
2019-06-27T12:45:09.813Z,3.85
2019-06-27T12:47:39.473Z,3.85
2019-06-27T12:50:09.277Z,4.20
2019-06-27T12:52:39.165Z,4.53
2019-06-27T12:55:08.846Z,3.85
2019-06-27T12:57:38.507Z,4.87
2019-06-27T13:00:09.173Z,4.37
2019-06-27T13:02:39.023Z,4.45
2019-06-27T13:05:08.425Z,3.60
2019-06-27T13:07:38.138Z,4.00
2019-06-27T13:10:08.273Z,4.05
2019-06-27T13:12:38.154Z,4.05
2019-06-27T13:15:07.934Z,3.60
2019-06-27T13:17:37.319Z,4.92
2019-06-27T13:20:07.852Z,3.83
2019-06-27T13:22:37.729Z,3.77
2019-06-27T13:25:07.237Z,3.55
2019-06-27T13:27:36.910Z,3.77
2019-06-27T13:30:07.245Z,3.50
2019-06-27T13:32:36.940Z,3.50
2019-06-27T13:35:06.936Z,3.77
2019-06-27T13:37:36.272Z,3.98
2019-06-27T13:40:06.274Z,4.03
2019-06-27T13:42:38.368Z,3.55
2019-06-27T13:45:07.274Z,3.40
2019-06-27T13:47:36.983Z,3.50
2019-06-27T13:50:06.851Z,3.58
2019-06-27T13:52:36.313Z,3.77
2019-06-27T13:55:06.410Z,3.60
2019-06-27T13:57:35.819Z,4.97
2019-06-27T14:00:06.317Z,4.33
2019-06-27T14:02:35.823Z,3.95
2019-06-27T14:05:05.762Z,3.92
2019-06-27T14:07:35.588Z,3.58
2019-06-27T14:10:05.518Z,3.95
2019-06-27T14:12:34.926Z,4.10
2019-06-27T14:15:04.815Z,3.70
2019-06-27T14:17:34.680Z,5.03
2019-06-27T14:20:04.441Z,4.33
2019-06-27T14:22:34.324Z,3.83
2019-06-27T14:25:04.067Z,5.12
2019-06-27T14:27:33.670Z,4.10
2019-06-27T14:30:03.174Z,4.47
2019-06-27T14:32:32.865Z,4.05
2019-06-27T14:35:14.645Z,6.62
2019-06-27T14:37:34.140Z,3.87
2019-06-27T14:40:03.974Z,4.90
2019-06-27T14:42:33.435Z,3.80
2019-06-27T14:45:03.162Z,5.07
2019-06-27T14:47:32.861Z,4.33
2019-06-27T14:50:02.387Z,4.73
2019-06-27T14:52:34.833Z,4.67
2019-06-27T14:55:03.144Z,5.33
2019-06-27T14:57:32.541Z,4.33
2019-06-27T15:00:02.408Z,4.30
2019-06-27T15:02:31.961Z,6.83
2019-06-27T15:05:01.523Z,5.50
2019-06-27T15:07:31.384Z,4.80
2019-06-27T15:10:01.267Z,4.27
2019-06-27T15:12:30.722Z,4.70
2019-06-27T15:15:00.394Z,4.67
2019-06-27T15:17:29.938Z,5.93
2019-06-27T15:19:59.611Z,4.57
2019-06-27T15:22:31.541Z,4.27
2019-06-27T15:25:01.376Z,4.40
2019-06-27T15:27:31.033Z,5.00
2019-06-27T15:30:00.776Z,4.27
2019-06-27T15:32:30.479Z,4.20
2019-06-27T15:35:00.162Z,4.47
2019-06-27T15:37:29.820Z,5.30
2019-06-27T15:39:59.377Z,4.30
2019-06-27T15:42:29.026Z,4.80
2019-06-27T15:44:58.445Z,4.23
2019-06-27T15:47:28.388Z,5.97
2019-06-27T15:49:58.156Z,6.73
2019-06-27T15:52:27.741Z,13.27
2019-06-27T15:54:57.512Z,6.77
2019-06-27T15:57:27.284Z,10.03
2019-06-27T15:59:56.877Z,11.87
2019-06-27T16:02:26.709Z,17.77
2019-06-27T16:04:56.411Z,8.80
2019-06-27T16:07:25.986Z,5.03
2019-06-27T16:09:55.715Z,4.60
2019-06-27T16:12:26.067Z,4.77
2019-06-27T16:14:55.851Z,4.47
2019-06-27T16:17:25.247Z,5.40
2019-06-27T16:19:55.025Z,5.77
2019-06-27T16:22:24.848Z,5.60
2019-06-27T16:24:54.407Z,8.00
2019-06-27T16:27:23.856Z,8.07
2019-06-27T16:29:53.598Z,8.47
2019-06-27T16:32:23.319Z,8.47
2019-06-27T16:34:53.047Z,5.73
2019-06-27T16:37:22.467Z,5.90
2019-06-27T16:39:52.314Z,5.10
2019-06-27T16:42:21.755Z,6.37
2019-06-27T16:44:51.439Z,5.27
2019-06-27T16:47:21.300Z,4.90
2019-06-27T16:49:51.017Z,4.80
2019-06-27T16:52:20.632Z,7.47
2019-06-27T16:54:50.050Z,4.70
2019-06-27T16:57:19.862Z,6.30
2019-06-27T16:59:49.598Z,5.00
2019-06-27T17:02:19.179Z,5.90
2019-06-27T17:04:48.789Z,4.10
2019-06-27T17:07:18.561Z,4.97
2019-06-27T17:09:48.094Z,4.63
2019-06-27T17:12:17.490Z,7.43
2019-06-27T17:14:47.379Z,5.23
2019-06-27T17:17:17.067Z,5.47
2019-06-27T17:19:48.518Z,8.80
2019-06-27T17:22:18.087Z,5.27
2019-06-27T17:24:47.818Z,5.70
2019-06-27T17:27:17.490Z,5.37
2019-06-27T17:29:46.925Z,5.30
2019-06-27T17:32:16.774Z,5.03
2019-06-27T17:34:46.315Z,4.90
2019-06-27T17:37:18.565Z,5.17
2019-06-27T17:39:46.938Z,6.50
2019-06-27T17:42:16.744Z,6.77
2019-06-27T17:44:46.224Z,5.10
2019-06-27T17:47:15.931Z,5.03
2019-06-27T17:49:49.008Z,5.43
2019-06-27T17:52:17.071Z,6.33
2019-06-27T17:54:46.866Z,7.30
2019-06-27T17:57:16.313Z,4.80
2019-06-27T17:59:45.907Z,5.10
2019-06-27T18:02:15.561Z,4.93
2019-06-27T18:04:45.235Z,5.53
2019-06-27T18:07:15.325Z,5.23
2019-06-27T18:09:44.834Z,5.20
2019-06-27T18:12:14.646Z,5.10
2019-06-27T18:14:44.065Z,5.50
2019-06-27T18:17:13.610Z,7.13
2019-06-27T18:19:43.531Z,5.80
2019-06-27T18:22:13.229Z,5.13
2019-06-27T18:24:43.056Z,5.10
2019-06-27T18:27:12.560Z,4.90
2019-06-27T18:29:42.111Z,5.10
2019-06-27T18:32:11.811Z,6.33
2019-06-27T18:34:41.492Z,5.47
2019-06-27T18:37:11.301Z,10.30
2019-06-27T18:39:40.795Z,6.87
2019-06-27T18:42:10.586Z,5.60
2019-06-27T18:44:40.405Z,5.13
2019-06-27T18:47:10.245Z,6.33
2019-06-27T18:49:40.079Z,5.50
2019-06-27T18:52:10.038Z,5.40
2019-06-27T18:54:39.466Z,5.93
2019-06-27T18:57:08.976Z,6.17
2019-06-27T18:59:38.496Z,5.67
2019-06-27T19:02:08.102Z,5.37
2019-06-27T19:04:37.882Z,7.47
2019-06-27T19:07:07.642Z,6.50
2019-06-27T19:09:37.411Z,7.33
2019-06-27T19:12:07.094Z,5.83
2019-06-27T19:14:37.021Z,5.33
2019-06-27T19:17:06.827Z,6.07
2019-06-27T19:19:37.910Z,5.67
2019-06-27T19:22:26.649Z,5.70
2019-06-27T19:25:21.481Z,5.90
2019-06-27T19:27:51.125Z,6.07
2019-06-27T19:30:21.003Z,5.53
2019-06-27T19:32:50.781Z,5.50
2019-06-27T19:35:20.662Z,6.20
2019-06-27T19:38:01.511Z,5.87
2019-06-27T19:40:21.632Z,5.37
2019-06-27T19:42:51.485Z,6.07
2019-06-27T19:45:21.452Z,6.27
2019-06-27T19:47:50.847Z,5.17
2019-06-27T19:50:20.665Z,5.90
2019-06-27T19:52:50.213Z,5.67
2019-06-27T19:55:20.136Z,5.37
2019-06-27T19:57:49.753Z,6.40
2019-06-27T20:00:20.020Z,6.13
2019-06-27T20:02:49.788Z,5.13
2019-06-27T20:05:19.431Z,5.70
2019-06-27T20:07:49.253Z,6.60
2019-06-27T20:10:19.176Z,6.17
2019-06-27T20:12:48.846Z,5.97
2019-06-27T20:15:18.824Z,5.63
2019-06-27T20:17:48.804Z,5.90
2019-06-27T20:20:18.809Z,6.60
2019-06-27T20:22:48.482Z,6.23
2019-06-27T20:25:18.478Z,6.27
2019-06-27T20:27:48.249Z,6.17
2019-06-27T20:30:19.644Z,6.50
2019-06-27T20:32:49.175Z,6.80
2019-06-27T20:35:18.600Z,6.43
2019-06-27T20:37:48.499Z,6.27
2019-06-27T20:40:18.674Z,6.10
2019-06-27T20:42:48.486Z,6.40
2019-06-27T20:45:18.451Z,6.40
2019-06-27T20:47:49.795Z,6.33
2019-06-27T20:50:19.789Z,6.77
2019-06-27T20:52:49.883Z,6.17
2019-06-27T20:55:19.745Z,6.50
2019-06-27T20:57:49.241Z,6.47
2019-06-27T21:00:18.867Z,6.40
2019-06-27T21:02:48.342Z,5.77
2019-06-27T21:05:17.838Z,6.33
2019-06-27T21:07:47.329Z,5.63
2019-06-27T21:10:17.527Z,7.17
2019-06-27T21:12:47.226Z,6.40
2019-06-27T21:15:17.135Z,6.63
2019-06-27T21:17:47.255Z,7.50
2019-06-27T21:20:17.225Z,6.97
2019-06-27T21:22:46.826Z,6.27
2019-06-27T21:25:16.357Z,6.87
2019-06-27T21:27:45.994Z,6.77
2019-06-27T21:30:16.314Z,6.73
2019-06-27T21:32:48.285Z,6.70
2019-06-27T21:35:17.022Z,6.77
2019-06-27T21:37:46.498Z,6.60
2019-06-27T21:40:17.502Z,6.60
2019-06-27T21:42:47.314Z,7.13
2019-06-27T21:45:16.796Z,6.80
2019-06-27T21:47:46.446Z,6.43
2019-06-27T21:50:16.116Z,7.00
2019-06-27T21:52:45.686Z,6.80
2019-06-27T21:55:15.641Z,6.93
2019-06-27T21:57:45.102Z,6.90
2019-06-27T22:00:14.819Z,7.30
2019-06-27T22:02:44.654Z,6.70
2019-06-27T22:05:14.663Z,6.70
2019-06-27T22:07:44.406Z,6.50
2019-06-27T22:10:14.170Z,7.47
2019-06-27T22:12:43.891Z,6.67
2019-06-27T22:15:14.018Z,7.23
2019-06-27T22:17:43.384Z,6.43
2019-06-27T22:20:15.438Z,6.83
2019-06-27T22:22:45.286Z,7.37
2019-06-27T22:25:15.812Z,7.00
2019-06-27T22:27:45.211Z,7.27
2019-06-27T22:30:15.485Z,7.00
2019-06-27T22:32:45.276Z,7.10
2019-06-27T22:35:15.065Z,7.33
2019-06-27T22:38:02.067Z,6.83
2019-06-27T22:40:49.471Z,7.73
2019-06-27T22:43:36.940Z,7.33
2019-06-27T22:46:24.137Z,7.27
2019-06-27T22:48:53.006Z,7.30
2019-06-27T22:51:31.993Z,8.17
2019-06-27T22:54:02.907Z,7.33
2019-06-27T22:56:32.386Z,8.00
2019-06-27T22:59:02.197Z,7.47
2019-06-27T23:01:31.827Z,8.17
2019-06-27T23:04:01.297Z,9.47
2019-06-27T23:06:30.942Z,7.80
2019-06-27T23:09:00.452Z,8.20
2019-06-27T23:11:30.017Z,8.87
2019-06-27T23:13:59.630Z,8.30
2019-06-27T23:16:29.289Z,8.70
2019-06-27T23:18:59.009Z,8.63
2019-06-27T23:21:28.558Z,8.63
2019-06-27T23:23:58.371Z,8.50
2019-06-27T23:26:27.938Z,9.37
2019-06-27T23:28:57.453Z,8.57
2019-06-27T23:31:27.126Z,8.47
2019-06-27T23:33:56.906Z,8.70
2019-06-27T23:36:26.522Z,8.80
2019-06-27T23:38:56.097Z,9.07
2019-06-27T23:41:25.670Z,8.73
2019-06-27T23:43:55.515Z,8.60
2019-06-27T23:46:43.741Z,8.63
2019-06-27T23:49:13.405Z,9.50
2019-06-27T23:51:43.143Z,10.37
2019-06-27T23:54:12.619Z,9.47
2019-06-27T23:56:42.203Z,9.97
2019-06-27T23:59:11.782Z,9.97
